createdAt,value
2016-12-15T00:00:08.127Z,92.24
2016-12-15T00:01:16.844Z,92.71
2016-12-15T00:02:25.528Z,93.28
2016-12-15T00:03:34.208Z,94.22
2016-12-15T00:04:42.890Z,94.5
2016-12-15T00:05:51.571Z,95.07
2016-12-15T00:07:00.256Z,94.98
2016-12-15T00:08:08.938Z,94.88
2016-12-15T00:09:17.618Z,94.6
2016-12-15T00:10:26.328Z,94.5
2016-12-15T00:11:35.012Z,94.03
2016-12-15T00:12:43.695Z,94.88
2016-12-15T00:13:52.376Z,94.13
2016-12-15T00:15:01.057Z,94.13
2016-12-15T00:16:09.756Z,94.6
2016-12-15T00:17:18.463Z,94.79
2016-12-15T00:18:27.139Z,95.5
2016-12-15T00:19:35.822Z,95.92
2016-12-15T00:20:44.505Z,96.39
2016-12-15T00:21:53.191Z,96.44
2016-12-15T00:23:01.868Z,96.91
2016-12-15T00:24:10.547Z,97
2016-12-15T00:25:19.235Z,97.09
2016-12-15T00:26:27.916Z,97.75
2016-12-15T00:27:36.610Z,97.38
2016-12-15T00:28:45.289Z,97.85
2016-12-15T00:29:53.972Z,98.6
2016-12-15T00:31:02.680Z,98.41
2016-12-15T00:32:11.362Z,98.23
2016-12-15T00:33:20.041Z,98.7
2016-12-15T00:34:28.721Z,98.41
2016-12-15T00:35:37.397Z,98.89
2016-12-15T00:36:46.079Z,98.6
2016-12-15T00:37:54.761Z,99.26
2016-12-15T00:39:03.449Z,99.26
2016-12-15T00:40:12.130Z,98.98
2016-12-15T00:41:20.812Z,99.26
2016-12-15T00:42:29.495Z,99.08
2016-12-15T00:43:38.175Z,99.17
2016-12-15T00:44:46.885Z,98.51
2016-12-15T00:45:55.566Z,99.08
2016-12-15T00:47:04.251Z,98.41
2016-12-15T00:48:12.932Z,98.41
2016-12-15T00:49:21.615Z,98.23
2016-12-15T00:50:30.293Z,98.41
2016-12-15T00:51:38.975Z,98.6
2016-12-15T00:52:47.657Z,98.7
2016-12-15T00:53:56.344Z,99.17
2016-12-15T00:55:05.033Z,99.17
2016-12-15T00:56:13.715Z,98.79
2016-12-15T00:57:22.395Z,98.98
2016-12-15T00:58:31.077Z,99.26
2016-12-15T00:59:39.767Z,99.83
2016-12-15T01:00:48.454Z,99.26
2016-12-15T01:01:57.451Z,99.26
2016-12-15T01:03:06.135Z,99.64
2016-12-15T01:04:14.818Z,99.64
2016-12-15T01:05:23.528Z,99.74
2016-12-15T01:06:32.205Z,99.99
2016-12-15T01:07:40.885Z,99.99
2016-12-15T01:08:49.566Z,99.74
2016-12-15T01:09:58.256Z,99.99
2016-12-15T01:11:06.937Z,99.74
2016-12-15T01:12:15.623Z,99.64
2016-12-15T01:13:24.305Z,99.93
2016-12-15T01:14:33.015Z,99.45
2016-12-15T01:15:41.717Z,99.74
2016-12-15T01:16:50.401Z,99.64
2016-12-15T01:17:59.092Z,99.83
2016-12-15T01:19:07.805Z,99.99
2016-12-15T01:20:16.492Z,99.99
2016-12-15T01:21:25.174Z,99.99
2016-12-15T01:22:33.858Z,99.99
2016-12-15T01:23:42.537Z,99.83
2016-12-15T01:24:51.250Z,99.64
2016-12-15T01:25:59.936Z,99.93
2016-12-15T01:27:08.619Z,99.74
2016-12-15T01:28:17.303Z,99.26
2016-12-15T01:29:26.027Z,99.74
2016-12-15T01:30:34.708Z,99.17
2016-12-15T01:31:43.389Z,98.98
2016-12-15T01:32:52.100Z,98.98
2016-12-15T01:34:00.786Z,98.89
2016-12-15T01:35:09.471Z,99.45
2016-12-15T01:36:18.148Z,99.45
2016-12-15T01:37:26.832Z,99.55
2016-12-15T01:38:35.518Z,99.99
2016-12-15T01:39:44.195Z,99.08
2016-12-15T01:40:52.875Z,99.36
2016-12-15T01:42:01.556Z,99.26
2016-12-15T01:43:10.239Z,98.7
2016-12-15T01:44:18.928Z,99.17
2016-12-15T01:45:27.611Z,98.98
2016-12-15T01:46:36.322Z,98.79
2016-12-15T01:47:45.007Z,99.74
2016-12-15T01:48:53.695Z,99.93
2016-12-15T01:50:02.382Z,99.93
2016-12-15T01:51:11.401Z,99.99
2016-12-15T01:52:20.087Z,99.99
2016-12-15T01:53:28.774Z,99.99
2016-12-15T01:54:37.461Z,99.99
2016-12-15T01:55:46.146Z,99.99
2016-12-15T01:56:54.834Z,99.99
2016-12-15T01:58:03.518Z,99.99
2016-12-15T01:59:12.200Z,99.83
2016-12-15T02:00:21.205Z,99.99
2016-12-15T02:01:29.884Z,99.99
2016-12-15T02:02:38.571Z,99.99
2016-12-15T02:03:47.254Z,99.99
2016-12-15T02:04:55.936Z,99.99
2016-12-15T02:06:04.622Z,99.99
2016-12-15T02:07:13.304Z,99.97
2016-12-15T02:08:21.987Z,99.99
2016-12-15T02:09:30.668Z,99.99
2016-12-15T02:10:39.351Z,99.99
2016-12-15T02:11:48.032Z,99.99
2016-12-15T02:12:56.744Z,99.64
2016-12-15T02:14:05.432Z,99.99
2016-12-15T02:15:14.112Z,99.99
2016-12-15T02:16:22.796Z,99.74
2016-12-15T02:17:31.504Z,99.55
2016-12-15T02:18:40.183Z,99.64
2016-12-15T02:19:48.894Z,99.74
2016-12-15T02:20:57.579Z,99.99
2016-12-15T02:22:06.258Z,99.99
2016-12-15T02:23:14.939Z,99.99
2016-12-15T02:24:23.618Z,99.99
2016-12-15T02:25:32.297Z,99.99
2016-12-15T02:26:40.979Z,99.99
2016-12-15T02:27:49.671Z,99.93
2016-12-15T02:28:58.380Z,99.83
2016-12-15T02:30:07.084Z,99.64
2016-12-15T02:31:15.768Z,99.45
2016-12-15T02:32:24.458Z,99.74
2016-12-15T02:33:33.149Z,99.74
2016-12-15T02:34:41.829Z,99.45
2016-12-15T02:35:50.510Z,99.93
2016-12-15T02:36:59.197Z,99.45
2016-12-15T02:38:07.881Z,99.08
2016-12-15T02:39:16.561Z,99.45
2016-12-15T02:40:25.242Z,99.64
2016-12-15T02:41:33.932Z,99.26
2016-12-15T02:42:42.612Z,99.83
2016-12-15T02:43:51.293Z,98.89
2016-12-15T02:44:59.975Z,99.55
2016-12-15T02:46:08.659Z,98.89
2016-12-15T02:47:17.338Z,99.26
2016-12-15T02:48:26.024Z,99.26
2016-12-15T02:49:34.705Z,99.17
2016-12-15T02:50:43.394Z,98.89
2016-12-15T02:51:52.116Z,99.26
2016-12-15T02:53:00.803Z,99.26
2016-12-15T02:54:09.488Z,99.74
2016-12-15T02:55:18.167Z,99.17
2016-12-15T02:56:26.859Z,98.98
2016-12-15T02:57:35.543Z,99.26
2016-12-15T02:58:44.225Z,98.98
2016-12-15T02:59:52.926Z,99.64
2016-12-15T03:01:01.601Z,99.26
2016-12-15T03:02:10.289Z,98.89
2016-12-15T03:03:18.976Z,99.26
2016-12-15T03:04:27.653Z,99.64
2016-12-15T03:05:36.335Z,99.74
2016-12-15T03:06:45.021Z,99.83
2016-12-15T03:07:53.699Z,99.74
2016-12-15T03:09:02.391Z,99.55
2016-12-15T03:10:11.074Z,99.74
2016-12-15T03:11:19.755Z,99.74
2016-12-15T03:12:28.433Z,99.74
2016-12-15T03:13:37.115Z,99.83
2016-12-15T03:14:45.801Z,99.45
2016-12-15T03:15:54.483Z,99.45
2016-12-15T03:17:03.161Z,99.45
2016-12-15T03:18:11.840Z,99.99
2016-12-15T03:19:20.526Z,99.99
2016-12-15T03:20:29.214Z,99.93
2016-12-15T03:21:37.892Z,99.45
2016-12-15T03:22:46.577Z,99.45
2016-12-15T03:23:55.257Z,99.83
2016-12-15T03:25:03.942Z,99.93
2016-12-15T03:26:12.624Z,99.99
2016-12-15T03:27:21.302Z,99.83
2016-12-15T03:28:29.985Z,99.74
2016-12-15T03:29:38.670Z,99.83
2016-12-15T03:30:47.353Z,99.93
2016-12-15T03:31:56.037Z,99.99
2016-12-15T03:33:04.720Z,99.64
2016-12-15T03:34:13.400Z,99.45
2016-12-15T03:35:22.076Z,99.74
2016-12-15T03:36:30.757Z,99.93
2016-12-15T03:37:39.752Z,99.99
2016-12-15T03:38:48.436Z,99.93
2016-12-15T03:39:57.141Z,99.74
2016-12-15T03:41:05.824Z,99.83
2016-12-15T03:42:14.505Z,99.74
2016-12-15T03:43:23.189Z,99.74
2016-12-15T03:44:31.871Z,99.74
2016-12-15T03:45:40.548Z,99.45
2016-12-15T03:46:49.231Z,99.45
2016-12-15T03:47:57.911Z,99.99
2016-12-15T03:49:06.588Z,99.99
2016-12-15T03:50:15.275Z,99.99
2016-12-15T03:51:23.957Z,99.99
2016-12-15T03:52:32.643Z,99.99
2016-12-15T03:53:41.327Z,99.99
2016-12-15T03:54:50.008Z,99.99
2016-12-15T03:55:58.690Z,99.99
2016-12-15T03:57:07.374Z,99.99
2016-12-15T03:58:16.060Z,99.74
2016-12-15T03:59:24.741Z,99.45
2016-12-15T04:00:33.468Z,99.26
2016-12-15T04:01:42.150Z,98.6
2016-12-15T04:02:50.828Z,98.23
2016-12-15T04:03:59.508Z,98.13
2016-12-15T04:05:08.199Z,98.46
2016-12-15T04:06:16.887Z,98.65
2016-12-15T04:07:25.569Z,99.02
2016-12-15T04:08:34.249Z,98.65
2016-12-15T04:09:42.931Z,99.21
2016-12-15T04:10:51.622Z,99.02
2016-12-15T04:12:00.304Z,99.21
2016-12-15T04:13:08.990Z,99.4
2016-12-15T04:14:17.673Z,99.02
2016-12-15T04:15:26.355Z,99.4
2016-12-15T04:16:35.365Z,99.5
2016-12-15T04:17:44.046Z,99.68
2016-12-15T04:18:52.726Z,99.87
2016-12-15T04:20:01.409Z,99.5
2016-12-15T04:21:10.092Z,99.4
2016-12-15T04:22:18.777Z,99.87
2016-12-15T04:23:27.462Z,99.78
2016-12-15T04:24:36.169Z,99.59
2016-12-15T04:25:44.848Z,99.87
2016-12-15T04:26:53.532Z,99.78
2016-12-15T04:28:02.220Z,99.5
2016-12-15T04:29:10.902Z,99.97
2016-12-15T04:30:19.897Z,99.78
2016-12-15T04:31:28.576Z,99.99
2016-12-15T04:32:37.285Z,99.99
2016-12-15T04:33:45.974Z,99.99
2016-12-15T04:34:54.661Z,99.99
2016-12-15T04:36:03.666Z,99.99
2016-12-15T04:37:12.376Z,99.99
2016-12-15T04:38:21.061Z,99.99
2016-12-15T04:39:29.748Z,99.99
2016-12-15T04:40:38.426Z,99.99
2016-12-15T04:41:47.104Z,99.99
2016-12-15T04:42:55.787Z,99.99
2016-12-15T04:44:04.492Z,99.99
2016-12-15T04:45:13.175Z,99.99
2016-12-15T04:46:21.854Z,99.99
2016-12-15T04:47:30.537Z,99.99
2016-12-15T04:48:39.216Z,99.99
2016-12-15T04:49:47.898Z,99.99
2016-12-15T04:50:56.572Z,99.99
2016-12-15T04:52:05.568Z,99.99
2016-12-15T04:53:14.247Z,99.99
2016-12-15T04:54:23.237Z,99.99
2016-12-15T04:55:31.915Z,99.99
2016-12-15T04:56:40.624Z,99.99
2016-12-15T04:57:49.304Z,99.99
2016-12-15T04:58:57.980Z,99.99
2016-12-15T05:00:06.690Z,99.99
2016-12-15T05:01:15.370Z,99.99
2016-12-15T05:02:24.076Z,99.99
2016-12-15T05:03:33.107Z,99.99
2016-12-15T05:04:41.786Z,99.99
2016-12-15T05:05:50.472Z,99.99
2016-12-15T05:06:59.147Z,99.99
2016-12-15T05:08:07.834Z,99.99
2016-12-15T05:09:16.519Z,99.99
2016-12-15T05:10:25.202Z,99.99
2016-12-15T05:11:33.895Z,99.99
2016-12-15T05:12:42.575Z,99.99
2016-12-15T05:13:51.284Z,99.99
2016-12-15T05:14:59.970Z,99.99
2016-12-15T05:16:08.690Z,99.99
2016-12-15T05:17:17.369Z,99.99
2016-12-15T05:18:26.047Z,99.99
2016-12-15T05:19:34.753Z,99.99
2016-12-15T05:20:43.432Z,99.99
2016-12-15T05:21:52.110Z,99.99
2016-12-15T05:23:01.102Z,99.99
2016-12-15T05:24:09.778Z,99.99
2016-12-15T05:25:18.461Z,99.99
2016-12-15T05:26:27.138Z,99.99
2016-12-15T05:27:35.816Z,99.99
2016-12-15T05:28:44.493Z,99.99
2016-12-15T05:29:53.174Z,99.99
2016-12-15T05:31:01.850Z,99.99
2016-12-15T05:32:10.535Z,99.99
2016-12-15T05:33:19.225Z,99.99
2016-12-15T05:34:27.905Z,99.99
2016-12-15T05:35:36.581Z,99.99
2016-12-15T05:36:45.264Z,99.99
2016-12-15T05:37:53.941Z,99.99
2016-12-15T05:39:02.635Z,99.99
2016-12-15T05:40:11.320Z,99.99
2016-12-15T05:41:20.003Z,99.99
2016-12-15T05:42:28.711Z,99.99
2016-12-15T05:43:37.394Z,99.99
2016-12-15T05:44:46.074Z,99.99
2016-12-15T05:45:54.750Z,99.99
2016-12-15T05:47:03.745Z,99.99
2016-12-15T05:48:12.423Z,99.99
2016-12-15T05:49:21.099Z,99.99
2016-12-15T05:50:29.779Z,99.99
2016-12-15T05:51:38.456Z,99.99
2016-12-15T05:52:47.137Z,99.99
2016-12-15T05:53:55.819Z,99.99
2016-12-15T05:55:04.503Z,99.99
2016-12-15T05:56:13.188Z,99.99
2016-12-15T05:57:21.871Z,99.99
2016-12-15T05:58:30.584Z,99.99
2016-12-15T05:59:39.264Z,99.99
2016-12-15T06:00:47.944Z,99.99
2016-12-15T06:01:56.629Z,99.99
2016-12-15T06:03:05.335Z,99.99
2016-12-15T06:04:14.014Z,99.99
2016-12-15T06:05:22.694Z,99.99
2016-12-15T06:06:31.385Z,99.99
2016-12-15T06:07:40.065Z,99.99
2016-12-15T06:08:48.750Z,99.99
2016-12-15T06:09:57.429Z,99.99
2016-12-15T06:11:06.108Z,99.99
2016-12-15T06:12:14.793Z,99.99
2016-12-15T06:13:23.481Z,99.99
2016-12-15T06:14:32.162Z,99.99
2016-12-15T06:15:40.847Z,99.99
2016-12-15T06:16:49.529Z,99.99
2016-12-15T06:17:58.206Z,99.99
2016-12-15T06:19:06.887Z,99.99
2016-12-15T06:20:15.570Z,99.99
2016-12-15T06:21:24.249Z,99.99
2016-12-15T06:22:32.933Z,99.99
2016-12-15T06:23:41.617Z,99.99
2016-12-15T06:24:50.299Z,99.99
2016-12-15T06:25:58.978Z,99.99
2016-12-15T06:27:07.668Z,99.99
2016-12-15T06:28:16.347Z,99.99
2016-12-15T06:29:25.061Z,99.99
2016-12-15T06:30:33.740Z,99.99
2016-12-15T06:31:42.424Z,99.99
2016-12-15T06:32:51.103Z,99.99
2016-12-15T06:33:59.784Z,99.99
2016-12-15T06:35:08.464Z,99.99
2016-12-15T06:36:17.149Z,99.99
2016-12-15T06:37:25.829Z,99.99
2016-12-15T06:38:34.511Z,99.99
2016-12-15T06:39:43.194Z,99.99
2016-12-15T06:40:51.873Z,99.99
2016-12-15T06:42:00.563Z,99.99
2016-12-15T06:43:09.245Z,99.99
2016-12-15T06:44:17.926Z,99.99
2016-12-15T06:45:26.609Z,99.99
2016-12-15T06:46:35.609Z,99.99
2016-12-15T06:47:44.289Z,99.99
2016-12-15T06:48:52.972Z,99.99
2016-12-15T06:50:01.652Z,99.99
2016-12-15T06:51:10.396Z,99.99
2016-12-15T06:52:19.084Z,99.99
2016-12-15T06:53:27.766Z,99.99
2016-12-15T06:54:36.442Z,99.99
2016-12-15T06:55:45.122Z,99.99
2016-12-15T06:56:53.798Z,99.99
2016-12-15T06:58:02.479Z,99.99
2016-12-15T06:59:11.165Z,99.99
2016-12-15T07:00:19.866Z,99.99
2016-12-15T07:01:28.555Z,99.99
2016-12-15T07:02:37.233Z,99.99
2016-12-15T07:03:45.915Z,99.99
2016-12-15T07:04:54.599Z,99.99
2016-12-15T07:06:03.286Z,99.99
2016-12-15T07:07:11.968Z,99.99
2016-12-15T07:08:20.644Z,99.99
2016-12-15T07:09:29.334Z,99.99
2016-12-15T07:10:38.037Z,99.99
2016-12-15T07:11:46.718Z,99.99
2016-12-15T07:12:55.399Z,99.99
2016-12-15T07:14:04.099Z,99.99
2016-12-15T07:15:12.930Z,99.99
2016-12-15T07:16:21.612Z,99.99
2016-12-15T07:17:30.291Z,99.99
2016-12-15T07:18:38.975Z,99.99
2016-12-15T07:19:47.682Z,99.99
2016-12-15T07:20:56.361Z,99.99
2016-12-15T07:22:05.046Z,99.99
2016-12-15T07:23:13.727Z,99.99
2016-12-15T07:24:22.404Z,99.99
2016-12-15T07:25:31.084Z,99.99
2016-12-15T07:26:40.078Z,99.99
2016-12-15T07:27:48.759Z,99.99
2016-12-15T07:28:57.441Z,99.99
2016-12-15T07:30:07.855Z,99.99
2016-12-15T07:31:16.534Z,99.99
2016-12-15T07:32:25.212Z,99.99
2016-12-15T07:33:33.897Z,99.99
2016-12-15T07:34:42.578Z,99.99
2016-12-15T07:35:51.255Z,99.99
2016-12-15T07:36:59.937Z,99.99
2016-12-15T07:38:08.617Z,99.99
2016-12-15T07:39:17.297Z,99.99
2016-12-15T07:40:25.979Z,99.99
2016-12-15T07:41:34.660Z,99.99
2016-12-15T07:42:43.339Z,99.99
2016-12-15T07:43:52.026Z,99.99
2016-12-15T07:45:00.705Z,99.99
2016-12-15T07:46:09.395Z,99.99
2016-12-15T07:47:18.076Z,99.99
2016-12-15T07:48:26.752Z,99.99
2016-12-15T07:49:35.427Z,99.99
2016-12-15T07:50:44.113Z,99.99
2016-12-15T07:51:52.794Z,99.99
2016-12-15T07:53:01.470Z,99.99
2016-12-15T07:54:10.150Z,99.99
2016-12-15T07:55:18.834Z,99.99
2016-12-15T07:56:27.516Z,99.99
2016-12-15T07:57:36.199Z,99.99
2016-12-15T07:58:44.878Z,99.99
2016-12-15T07:59:53.871Z,99.99
2016-12-15T08:01:02.556Z,99.99
2016-12-15T08:02:11.554Z,99.99
2016-12-15T08:03:20.240Z,99.99
2016-12-15T08:04:28.930Z,99.99
2016-12-15T08:05:37.613Z,99.99
2016-12-15T08:06:46.291Z,99.99
2016-12-15T08:07:54.977Z,99.99
2016-12-15T08:09:03.668Z,99.99
2016-12-15T08:10:12.358Z,99.99
2016-12-15T08:11:21.038Z,99.99
2016-12-15T08:12:29.720Z,99.99
2016-12-15T08:13:38.398Z,99.99
2016-12-15T08:14:47.084Z,99.99
2016-12-15T08:15:55.763Z,99.99
2016-12-15T08:17:04.449Z,99.99
2016-12-15T08:18:13.133Z,99.99
2016-12-15T08:19:21.814Z,99.99
2016-12-15T08:20:30.497Z,99.99
2016-12-15T08:21:39.177Z,99.99
2016-12-15T08:22:47.859Z,99.99
2016-12-15T08:23:56.571Z,99.99
2016-12-15T08:25:05.255Z,99.99
2016-12-15T08:26:13.940Z,99.99
2016-12-15T08:27:22.617Z,99.99
2016-12-15T08:28:31.299Z,99.99
2016-12-15T08:29:40.132Z,99.99
2016-12-15T08:30:48.820Z,99.99
2016-12-15T08:31:57.548Z,99.99
2016-12-15T08:33:06.266Z,99.99
2016-12-15T08:34:14.949Z,99.99
2016-12-15T08:35:23.688Z,99.99
2016-12-15T08:36:32.371Z,99.99
2016-12-15T08:37:41.053Z,99.99
2016-12-15T08:38:49.741Z,99.99
2016-12-15T08:39:58.429Z,99.99
2016-12-15T08:41:07.114Z,99.99
2016-12-15T08:42:15.797Z,99.99
2016-12-15T08:43:24.479Z,99.99
2016-12-15T08:44:33.165Z,99.99
2016-12-15T08:45:41.866Z,99.99
2016-12-15T08:46:50.562Z,99.99
2016-12-15T08:47:59.244Z,99.99
2016-12-15T08:49:07.938Z,99.99
2016-12-15T08:50:16.622Z,99.99
2016-12-15T08:51:25.300Z,99.99
2016-12-15T08:52:33.980Z,99.99
2016-12-15T08:53:42.664Z,99.99
2016-12-15T08:54:51.348Z,99.99
2016-12-15T08:56:00.035Z,99.99
2016-12-15T08:57:08.717Z,99.99
2016-12-15T08:58:17.396Z,99.99
2016-12-15T08:59:26.124Z,99.99
2016-12-15T09:00:34.874Z,99.99
2016-12-15T09:01:43.553Z,99.99
2016-12-15T09:02:52.235Z,99.99
2016-12-15T09:04:00.920Z,99.99
2016-12-15T09:05:09.601Z,99.99
2016-12-15T09:06:18.310Z,99.99
2016-12-15T09:07:26.988Z,99.99
2016-12-15T09:08:35.672Z,99.99
2016-12-15T09:09:44.360Z,99.99
2016-12-15T09:10:53.045Z,99.99
2016-12-15T09:12:01.728Z,99.99
2016-12-15T09:13:10.410Z,99.99
2016-12-15T09:14:19.096Z,99.99
2016-12-15T09:15:27.777Z,99.99
2016-12-15T09:16:36.472Z,99.99
2016-12-15T09:17:45.152Z,99.99
2016-12-15T09:18:54.168Z,99.99
2016-12-15T09:20:02.855Z,99.99
2016-12-15T09:21:11.540Z,99.99
2016-12-15T09:22:20.220Z,99.99
2016-12-15T09:23:28.923Z,99.99
2016-12-15T09:24:37.606Z,99.99
2016-12-15T09:25:46.297Z,99.99
2016-12-15T09:26:54.979Z,99.99
2016-12-15T09:28:03.665Z,99.99
2016-12-15T09:29:12.352Z,99.99
2016-12-15T09:30:21.037Z,99.99
2016-12-15T09:31:29.722Z,99.99
2016-12-15T09:32:38.406Z,99.99
2016-12-15T09:33:47.092Z,99.99
2016-12-15T09:34:55.771Z,99.99
2016-12-15T09:36:04.455Z,99.99
2016-12-15T09:37:13.149Z,99.99
2016-12-15T09:38:21.829Z,99.99
2016-12-15T09:39:30.509Z,99.99
2016-12-15T09:40:39.189Z,99.99
2016-12-15T09:41:47.887Z,99.99
2016-12-15T09:42:56.594Z,99.99
2016-12-15T09:44:05.273Z,99.99
2016-12-15T09:45:13.956Z,99.99
2016-12-15T09:46:22.971Z,99.99
2016-12-15T09:47:31.670Z,99.99
2016-12-15T09:48:40.346Z,99.99
2016-12-15T09:49:49.026Z,99.99
2016-12-15T09:50:57.708Z,99.99
2016-12-15T09:52:06.393Z,99.99
2016-12-15T09:53:15.074Z,99.99
2016-12-15T09:54:23.762Z,99.99
2016-12-15T09:55:32.445Z,99.99
2016-12-15T09:56:41.130Z,99.99
2016-12-15T09:57:49.820Z,99.99
2016-12-15T09:58:58.508Z,99.99
2016-12-15T10:00:07.203Z,99.99
2016-12-15T10:01:15.891Z,99.99
2016-12-15T10:02:24.575Z,99.99
2016-12-15T10:03:33.256Z,99.99
2016-12-15T10:04:41.935Z,99.99
2016-12-15T10:05:50.617Z,99.99
2016-12-15T10:06:59.306Z,99.99
2016-12-15T10:08:07.988Z,99.99
2016-12-15T10:09:16.674Z,99.99
2016-12-15T10:10:25.359Z,99.99
2016-12-15T10:11:34.045Z,99.99
2016-12-15T10:12:43.040Z,99.99
2016-12-15T10:13:51.726Z,99.99
2016-12-15T10:15:00.412Z,99.99
2016-12-15T10:16:09.102Z,99.99
2016-12-15T10:17:17.787Z,99.99
2016-12-15T10:18:26.469Z,99.99
2016-12-15T10:19:35.156Z,99.99
2016-12-15T10:20:43.850Z,99.99
2016-12-15T10:21:52.536Z,99.99
2016-12-15T10:23:01.222Z,99.99
2016-12-15T10:24:09.912Z,99.99
2016-12-15T10:25:18.606Z,99.99
2016-12-15T10:26:27.288Z,99.99
2016-12-15T10:27:35.969Z,99.99
2016-12-15T10:28:44.653Z,99.99
2016-12-15T10:29:53.335Z,99.99
2016-12-15T10:31:02.020Z,99.99
2016-12-15T10:32:11.019Z,99.99
2016-12-15T10:33:19.701Z,99.99
2016-12-15T10:34:28.387Z,99.99
2016-12-15T10:35:37.071Z,99.99
2016-12-15T10:36:45.754Z,99.99
2016-12-15T10:37:54.439Z,99.99
2016-12-15T10:39:03.443Z,99.99
2016-12-15T10:40:12.129Z,99.99
2016-12-15T10:41:20.835Z,99.99
2016-12-15T10:42:29.520Z,99.99
2016-12-15T10:43:38.203Z,99.99
2016-12-15T10:44:46.888Z,99.99
2016-12-15T10:45:55.575Z,99.99
2016-12-15T10:47:04.260Z,99.99
2016-12-15T10:48:12.945Z,99.99
2016-12-15T10:49:21.629Z,99.99
2016-12-15T10:50:30.313Z,99.99
2016-12-15T10:51:39.005Z,99.99
2016-12-15T10:52:47.691Z,99.99
2016-12-15T10:53:56.378Z,99.99
2016-12-15T10:55:05.059Z,99.99
2016-12-15T10:56:13.744Z,99.99
2016-12-15T10:57:22.426Z,99.99
2016-12-15T10:58:31.110Z,99.99
2016-12-15T10:59:39.793Z,99.99
2016-12-15T11:00:48.482Z,99.99
2016-12-15T11:01:57.166Z,99.99
2016-12-15T11:03:05.850Z,99.99
2016-12-15T11:04:14.532Z,99.99
2016-12-15T11:05:23.216Z,99.99
2016-12-15T11:06:31.897Z,99.99
2016-12-15T11:07:40.584Z,99.99
2016-12-15T11:08:49.269Z,99.99
2016-12-15T11:09:58.284Z,99.99
2016-12-15T11:11:06.975Z,99.99
2016-12-15T11:12:15.655Z,99.79
2016-12-15T11:13:24.342Z,99.79
2016-12-15T11:14:33.022Z,99.41
2016-12-15T11:15:41.709Z,98.84
2016-12-15T11:16:50.391Z,99.13
2016-12-15T11:17:59.077Z,98.94
2016-12-15T11:19:07.762Z,99.22
2016-12-15T11:20:16.446Z,99.32
2016-12-15T11:21:25.127Z,98.47
2016-12-15T11:22:34.139Z,98.37
2016-12-15T11:23:42.820Z,98.75
2016-12-15T11:24:51.520Z,98.09
2016-12-15T11:26:00.207Z,97.71
2016-12-15T11:27:08.891Z,97.61
2016-12-15T11:28:17.574Z,97.05
2016-12-15T11:29:26.264Z,97.24
2016-12-15T11:30:34.950Z,96.95
2016-12-15T11:31:43.632Z,96.86
2016-12-15T11:32:52.316Z,96.86
2016-12-15T11:34:01.014Z,96.48
2016-12-15T11:35:09.699Z,96.48
2016-12-15T11:36:18.378Z,96.2
2016-12-15T11:37:27.060Z,96.11
2016-12-15T11:38:35.756Z,95.36
2016-12-15T11:39:44.444Z,95.26
2016-12-15T11:40:53.131Z,95.17
2016-12-15T11:42:01.823Z,94.88
2016-12-15T11:43:10.505Z,94.6
2016-12-15T11:44:19.190Z,95.45
2016-12-15T11:45:27.900Z,95.07
2016-12-15T11:46:36.583Z,94.88
2016-12-15T11:47:45.267Z,94.6
2016-12-15T11:48:53.959Z,95.26
2016-12-15T11:50:02.644Z,94.98
2016-12-15T11:51:11.325Z,94.79
2016-12-15T11:52:20.015Z,94.88
2016-12-15T11:53:28.698Z,94.41
2016-12-15T11:54:37.384Z,94.69
2016-12-15T11:55:46.067Z,94.83
2016-12-15T11:56:54.745Z,94.55
2016-12-15T11:58:03.429Z,94.46
2016-12-15T11:59:12.122Z,94.27
2016-12-15T12:00:20.801Z,94.36
2016-12-15T12:01:29.483Z,93.98
2016-12-15T12:02:38.190Z,94.17
2016-12-15T12:03:46.869Z,94.17
2016-12-15T12:04:55.557Z,93.7
2016-12-15T12:06:04.246Z,93.98
2016-12-15T12:07:12.927Z,94.93
2016-12-15T12:08:21.613Z,94.08
2016-12-15T12:09:30.303Z,94.13
2016-12-15T12:10:38.999Z,93.37
2016-12-15T12:11:47.678Z,94.51
2016-12-15T12:12:56.359Z,94.41
2016-12-15T12:14:05.043Z,94.03
2016-12-15T12:15:13.728Z,94.22
2016-12-15T12:16:22.408Z,94.13
2016-12-15T12:17:31.094Z,93.75
2016-12-15T12:18:39.782Z,93.47
2016-12-15T12:19:48.462Z,93.47
2016-12-15T12:20:57.144Z,93.47
2016-12-15T12:22:05.829Z,93.37
2016-12-15T12:23:14.512Z,93.47
2016-12-15T12:24:23.262Z,93.37
2016-12-15T12:25:31.949Z,93.65
2016-12-15T12:26:40.629Z,93.51
2016-12-15T12:27:49.311Z,93.7
2016-12-15T12:28:58.313Z,93.61
2016-12-15T12:30:06.999Z,93.51
2016-12-15T12:31:15.680Z,94.27
2016-12-15T12:32:24.363Z,94.17
2016-12-15T12:33:33.056Z,94.08
2016-12-15T12:34:41.737Z,94.27
2016-12-15T12:35:50.414Z,94.17
2016-12-15T12:36:59.091Z,94.74
2016-12-15T12:38:07.772Z,94.17
2016-12-15T12:39:16.461Z,94.08
2016-12-15T12:40:25.463Z,93.98
2016-12-15T12:41:34.146Z,94.17
2016-12-15T12:42:42.837Z,94.27
2016-12-15T12:43:51.522Z,94.46
2016-12-15T12:45:00.204Z,94.17
2016-12-15T12:46:08.902Z,94.17
2016-12-15T12:47:17.596Z,94.27
2016-12-15T12:48:26.278Z,94.46
2016-12-15T12:49:35.329Z,94.27
2016-12-15T12:50:44.013Z,93.89
2016-12-15T12:51:52.704Z,93.98
2016-12-15T12:53:01.387Z,93.98
2016-12-15T12:54:10.070Z,94.74
2016-12-15T12:55:18.753Z,94.36
2016-12-15T12:56:27.441Z,93.98
2016-12-15T12:57:36.137Z,94.27
2016-12-15T12:58:44.826Z,94.08
2016-12-15T12:59:53.546Z,93.8
2016-12-15T13:01:02.238Z,93.98
2016-12-15T13:02:11.243Z,93.98
2016-12-15T13:03:19.928Z,94.27
2016-12-15T13:04:28.615Z,94.08
2016-12-15T13:05:37.308Z,94.27
2016-12-15T13:06:46.329Z,94.36
2016-12-15T13:07:55.021Z,94.36
2016-12-15T13:09:03.712Z,94.36
2016-12-15T13:10:12.396Z,94.46
2016-12-15T13:11:21.079Z,94.36
2016-12-15T13:12:29.760Z,94.27
2016-12-15T13:13:38.447Z,94.27
2016-12-15T13:14:47.132Z,94.36
2016-12-15T13:15:55.815Z,94.93
2016-12-15T13:17:04.516Z,95.02
2016-12-15T13:18:13.200Z,95.26
2016-12-15T13:19:21.889Z,94.88
2016-12-15T13:20:30.576Z,94.98
2016-12-15T13:21:39.265Z,95.17
2016-12-15T13:22:47.945Z,94.79
2016-12-15T13:23:56.627Z,94.69
2016-12-15T13:25:05.318Z,94.51
2016-12-15T13:26:13.996Z,94.51
2016-12-15T13:27:22.678Z,94.03
2016-12-15T13:28:31.361Z,94.22
2016-12-15T13:29:40.045Z,94.22
2016-12-15T13:30:48.734Z,94.13
2016-12-15T13:31:57.422Z,93.94
2016-12-15T13:33:06.104Z,94.22
2016-12-15T13:34:14.795Z,94.13
2016-12-15T13:35:23.479Z,94.22
2016-12-15T13:36:32.158Z,93.94
2016-12-15T13:37:41.155Z,93.65
2016-12-15T13:38:49.874Z,93.75
2016-12-15T13:39:58.561Z,93.56
2016-12-15T13:41:07.240Z,93.28
2016-12-15T13:42:15.921Z,93.65
2016-12-15T13:43:24.607Z,93.47
2016-12-15T13:44:33.292Z,93.65
2016-12-15T13:45:41.975Z,93.18
2016-12-15T13:46:50.661Z,93.47
2016-12-15T13:47:59.353Z,93.09
2016-12-15T13:49:08.040Z,93.09
2016-12-15T13:50:16.716Z,93.18
2016-12-15T13:51:25.399Z,93.09
2016-12-15T13:52:34.087Z,93.09
2016-12-15T13:53:42.768Z,93.42
2016-12-15T13:54:51.453Z,93.7
2016-12-15T13:56:00.144Z,93.7
2016-12-15T13:57:09.148Z,94.17
2016-12-15T13:58:17.835Z,94.74
2016-12-15T13:59:26.518Z,94.17
2016-12-15T14:00:35.201Z,94.36
2016-12-15T14:01:43.880Z,94.17
2016-12-15T14:02:52.568Z,94.36
2016-12-15T14:04:01.251Z,94.46
2016-12-15T14:05:09.938Z,94.55
2016-12-15T14:06:18.619Z,94.74
2016-12-15T14:07:27.642Z,94.46
2016-12-15T14:08:36.322Z,94.17
2016-12-15T14:09:45.005Z,94.55
2016-12-15T14:10:53.691Z,95.02
2016-12-15T14:12:02.371Z,94.93
2016-12-15T14:13:11.080Z,94.46
2016-12-15T14:14:19.759Z,94.74
2016-12-15T14:15:28.441Z,94.93
2016-12-15T14:16:37.131Z,94.93
2016-12-15T14:17:45.812Z,94.08
2016-12-15T14:18:54.494Z,94.55
2016-12-15T14:20:03.180Z,94.93
2016-12-15T14:21:11.867Z,94.93
2016-12-15T14:22:20.556Z,94.46
2016-12-15T14:23:29.243Z,94.93
2016-12-15T14:24:37.959Z,94.74
2016-12-15T14:25:46.641Z,94.93
2016-12-15T14:26:55.322Z,95.02
2016-12-15T14:28:04.006Z,95.12
2016-12-15T14:29:12.685Z,94.83
2016-12-15T14:30:21.370Z,94.83
2016-12-15T14:31:30.049Z,95.02
2016-12-15T14:32:38.734Z,94.83
2016-12-15T14:33:47.416Z,95.4
2016-12-15T14:34:56.101Z,94.93
2016-12-15T14:36:05.100Z,95.02
2016-12-15T14:37:13.776Z,95.4
2016-12-15T14:38:22.459Z,95.68
2016-12-15T14:39:31.140Z,95.78
2016-12-15T14:40:39.818Z,95.4
2016-12-15T14:41:48.498Z,95.5
2016-12-15T14:42:57.180Z,94.83
2016-12-15T14:44:05.871Z,94.93
2016-12-15T14:45:14.551Z,94.93